sensor_id;sensor_type;location;lat;lon;timestamp;temperature;humidity
1936;DHT22;969;49.892;10.896;2023-08-06T00:00:21;24.50;55.50
1936;DHT22;969;49.892;10.896;2023-08-06T00:02:47;24.50;55.50
1936;DHT22;969;49.892;10.896;2023-08-06T00:05:13;24.50;55.40
1936;DHT22;969;49.892;10.896;2023-08-06T00:07:39;24.50;55.50
1936;DHT22;969;49.892;10.896;2023-08-06T00:10:05;24.50;55.50
1936;DHT22;969;49.892;10.896;2023-08-06T00:12:30;24.50;56.00
1936;DHT22;969;49.892;10.896;2023-08-06T00:14:56;24.50;55.50
1936;DHT22;969;49.892;10.896;2023-08-06T00:17:21;24.50;55.50
1936;DHT22;969;49.892;10.896;2023-08-06T00:19:47;24.50;55.50
1936;DHT22;969;49.892;10.896;2023-08-06T00:22:12;24.50;55.50
1936;DHT22;969;49.892;10.896;2023-08-06T00:24:38;24.50;55.50
1936;DHT22;969;49.892;10.896;2023-08-06T00:27:04;24.50;55.50
1936;DHT22;969;49.892;10.896;2023-08-06T00:29:30;24.50;55.50
1936;DHT22;969;49.892;10.896;2023-08-06T00:31:55;24.50;55.50
1936;DHT22;969;49.892;10.896;2023-08-06T00:34:21;24.50;55.50
1936;DHT22;969;49.892;10.896;2023-08-06T00:36:46;24.50;55.50
1936;DHT22;969;49.892;10.896;2023-08-06T00:39:12;24.50;55.50
1936;DHT22;969;49.892;10.896;2023-08-06T00:41:38;24.50;55.50
1936;DHT22;969;49.892;10.896;2023-08-06T00:44:03;24.50;55.50
1936;DHT22;969;49.892;10.896;2023-08-06T00:46:29;24.50;55.50
1936;DHT22;969;49.892;10.896;2023-08-06T00:48:56;24.50;55.40
1936;DHT22;969;49.892;10.896;2023-08-06T00:51:22;24.50;55.40
1936;DHT22;969;49.892;10.896;2023-08-06T00:53:49;24.50;55.40
1936;DHT22;969;49.892;10.896;2023-08-06T00:56:15;24.50;55.40
1936;DHT22;969;49.892;10.896;2023-08-06T00:58:41;24.50;55.40
1936;DHT22;969;49.892;10.896;2023-08-06T01:01:07;24.50;55.50
1936;DHT22;969;49.892;10.896;2023-08-06T01:03:33;24.50;55.50
1936;DHT22;969;49.892;10.896;2023-08-06T01:05:59;24.50;55.50
1936;DHT22;969;49.892;10.896;2023-08-06T01:08:30;24.50;55.50
1936;DHT22;969;49.892;10.896;2023-08-06T01:11:14;24.50;55.50
1936;DHT22;969;49.892;10.896;2023-08-06T01:13:46;24.50;55.50
1936;DHT22;969;49.892;10.896;2023-08-06T01:16:17;24.50;55.50
1936;DHT22;969;49.892;10.896;2023-08-06T01:18:43;24.50;55.50
1936;DHT22;969;49.892;10.896;2023-08-06T01:21:13;24.50;55.50
1936;DHT22;969;49.892;10.896;2023-08-06T01:23:38;24.50;55.50
1936;DHT22;969;49.892;10.896;2023-08-06T01:31:42;24.50;55.50
1936;DHT22;969;49.892;10.896;2023-08-06T01:34:17;24.50;55.50
1936;DHT22;969;49.892;10.896;2023-08-06T01:36:43;24.50;55.50
1936;DHT22;969;49.892;10.896;2023-08-06T01:39:09;24.50;55.50
1936;DHT22;969;49.892;10.896;2023-08-06T01:41:34;24.50;55.50
1936;DHT22;969;49.892;10.896;2023-08-06T01:44:01;24.50;55.50
1936;DHT22;969;49.892;10.896;2023-08-06T01:46:26;24.50;55.50
1936;DHT22;969;49.892;10.896;2023-08-06T01:48:52;24.40;55.40
1936;DHT22;969;49.892;10.896;2023-08-06T01:51:17;24.50;55.50
1936;DHT22;969;49.892;10.896;2023-08-06T01:53:43;24.50;55.50
1936;DHT22;969;49.892;10.896;2023-08-06T01:56:09;24.50;55.50
1936;DHT22;969;49.892;10.896;2023-08-06T01:58:34;24.50;55.50
1936;DHT22;969;49.892;10.896;2023-08-06T02:01:01;24.50;55.50
1936;DHT22;969;49.892;10.896;2023-08-06T02:03:27;24.50;55.50
1936;DHT22;969;49.892;10.896;2023-08-06T02:05:52;24.50;55.50
1936;DHT22;969;49.892;10.896;2023-08-06T02:08:18;24.50;55.50
1936;DHT22;969;49.892;10.896;2023-08-06T02:10:45;24.50;55.50
1936;DHT22;969;49.892;10.896;2023-08-06T02:13:11;24.50;55.50
1936;DHT22;969;49.892;10.896;2023-08-06T02:15:44;24.40;55.40
1936;DHT22;969;49.892;10.896;2023-08-06T02:18:13;24.50;55.50
1936;DHT22;969;49.892;10.896;2023-08-06T02:20:38;24.50;55.50
1936;DHT22;969;49.892;10.896;2023-08-06T02:23:04;24.50;55.50
1936;DHT22;969;49.892;10.896;2023-08-06T02:25:30;24.50;55.50
1936;DHT22;969;49.892;10.896;2023-08-06T02:27:55;24.50;55.50
1936;DHT22;969;49.892;10.896;2023-08-06T02:30:21;24.40;55.50
1936;DHT22;969;49.892;10.896;2023-08-06T02:32:46;24.50;55.50
1936;DHT22;969;49.892;10.896;2023-08-06T02:35:12;24.50;55.60
1936;DHT22;969;49.892;10.896;2023-08-06T02:37:38;24.50;55.50
1936;DHT22;969;49.892;10.896;2023-08-06T02:40:03;24.40;55.50
1936;DHT22;969;49.892;10.896;2023-08-06T02:42:29;24.50;55.50
1936;DHT22;969;49.892;10.896;2023-08-06T02:44:55;24.50;55.50
1936;DHT22;969;49.892;10.896;2023-08-06T02:47:21;24.50;55.50
1936;DHT22;969;49.892;10.896;2023-08-06T02:49:47;24.50;55.50
1936;DHT22;969;49.892;10.896;2023-08-06T02:52:12;24.50;55.50
1936;DHT22;969;49.892;10.896;2023-08-06T02:54:38;24.50;55.50
1936;DHT22;969;49.892;10.896;2023-08-06T02:57:04;24.50;55.50
1936;DHT22;969;49.892;10.896;2023-08-06T02:59:31;24.50;55.50
1936;DHT22;969;49.892;10.896;2023-08-06T03:01:56;24.40;55.40
1936;DHT22;969;49.892;10.896;2023-08-06T03:04:22;24.50;55.50
1936;DHT22;969;49.892;10.896;2023-08-06T03:06:49;24.50;55.50
1936;DHT22;969;49.892;10.896;2023-08-06T03:09:16;24.50;55.50
1936;DHT22;969;49.892;10.896;2023-08-06T03:11:41;24.40;55.40
1936;DHT22;969;49.892;10.896;2023-08-06T03:14:07;24.50;55.50
1936;DHT22;969;49.892;10.896;2023-08-06T03:16:32;24.50;55.50
1936;DHT22;969;49.892;10.896;2023-08-06T03:18:58;24.40;55.40
1936;DHT22;969;49.892;10.896;2023-08-06T03:21:23;24.40;55.50
1936;DHT22;969;49.892;10.896;2023-08-06T03:23:49;24.40;55.50
1936;DHT22;969;49.892;10.896;2023-08-06T03:26:15;24.40;55.50
1936;DHT22;969;49.892;10.896;2023-08-06T03:28:40;24.40;55.50
1936;DHT22;969;49.892;10.896;2023-08-06T03:31:06;24.40;55.50
1936;DHT22;969;49.892;10.896;2023-08-06T03:33:31;24.40;55.50
1936;DHT22;969;49.892;10.896;2023-08-06T03:35:57;24.40;55.50
1936;DHT22;969;49.892;10.896;2023-08-06T03:38:23;24.40;55.50
1936;DHT22;969;49.892;10.896;2023-08-06T03:40:49;24.40;55.50
1936;DHT22;969;49.892;10.896;2023-08-06T03:43:15;24.40;55.50
1936;DHT22;969;49.892;10.896;2023-08-06T03:45:41;24.40;55.50
1936;DHT22;969;49.892;10.896;2023-08-06T03:48:09;24.40;55.50
1936;DHT22;969;49.892;10.896;2023-08-06T03:50:35;24.40;55.50
1936;DHT22;969;49.892;10.896;2023-08-06T03:53:01;24.40;55.50
1936;DHT22;969;49.892;10.896;2023-08-06T03:55:27;24.40;55.50
1936;DHT22;969;49.892;10.896;2023-08-06T03:57:52;24.40;55.50
1936;DHT22;969;49.892;10.896;2023-08-06T04:00:18;24.40;55.50
1936;DHT22;969;49.892;10.896;2023-08-06T04:02:44;24.40;55.50
1936;DHT22;969;49.892;10.896;2023-08-06T04:05:10;24.40;55.50
1936;DHT22;969;49.892;10.896;2023-08-06T04:07:35;24.40;55.50
1936;DHT22;969;49.892;10.896;2023-08-06T04:10:03;24.40;55.40
1936;DHT22;969;49.892;10.896;2023-08-06T04:12:29;24.40;55.50
1936;DHT22;969;49.892;10.896;2023-08-06T04:14:56;24.40;55.40
1936;DHT22;969;49.892;10.896;2023-08-06T04:17:22;24.40;55.40
1936;DHT22;969;49.892;10.896;2023-08-06T04:19:54;24.40;55.50
1936;DHT22;969;49.892;10.896;2023-08-06T04:22:20;24.40;55.50
1936;DHT22;969;49.892;10.896;2023-08-06T04:24:46;24.40;55.50
1936;DHT22;969;49.892;10.896;2023-08-06T04:27:13;24.40;55.50
1936;DHT22;969;49.892;10.896;2023-08-06T04:29:39;24.40;55.40
1936;DHT22;969;49.892;10.896;2023-08-06T04:32:07;24.40;55.50
1936;DHT22;969;49.892;10.896;2023-08-06T04:34:33;24.40;55.40
1936;DHT22;969;49.892;10.896;2023-08-06T04:37:00;24.40;55.40
1936;DHT22;969;49.892;10.896;2023-08-06T04:39:25;24.40;56.00
1936;DHT22;969;49.892;10.896;2023-08-06T04:41:51;24.40;55.50
1936;DHT22;969;49.892;10.896;2023-08-06T04:44:17;24.40;55.50
1936;DHT22;969;49.892;10.896;2023-08-06T04:46:42;24.40;55.50
1936;DHT22;969;49.892;10.896;2023-08-06T04:49:08;24.40;55.50
1936;DHT22;969;49.892;10.896;2023-08-06T04:51:33;24.40;55.50
1936;DHT22;969;49.892;10.896;2023-08-06T04:53:59;24.40;55.50
1936;DHT22;969;49.892;10.896;2023-08-06T04:56:24;24.40;55.50
1936;DHT22;969;49.892;10.896;2023-08-06T04:58:50;24.40;55.50
1936;DHT22;969;49.892;10.896;2023-08-06T05:01:16;24.40;55.50
1936;DHT22;969;49.892;10.896;2023-08-06T05:03:42;24.40;55.50
1936;DHT22;969;49.892;10.896;2023-08-06T05:06:08;24.40;55.50
1936;DHT22;969;49.892;10.896;2023-08-06T05:08:33;24.40;55.50
1936;DHT22;969;49.892;10.896;2023-08-06T05:10:59;24.40;55.50
1936;DHT22;969;49.892;10.896;2023-08-06T05:13:24;24.40;55.50
1936;DHT22;969;49.892;10.896;2023-08-06T05:15:51;24.40;55.50
1936;DHT22;969;49.892;10.896;2023-08-06T05:18:18;24.40;55.50
1936;DHT22;969;49.892;10.896;2023-08-06T05:20:44;24.40;55.50
1936;DHT22;969;49.892;10.896;2023-08-06T05:23:10;24.40;55.50
1936;DHT22;969;49.892;10.896;2023-08-06T05:25:35;24.40;55.50
1936;DHT22;969;49.892;10.896;2023-08-06T05:28:02;24.40;55.50
1936;DHT22;969;49.892;10.896;2023-08-06T05:30:28;24.40;55.50
1936;DHT22;969;49.892;10.896;2023-08-06T05:32:53;24.40;55.50
1936;DHT22;969;49.892;10.896;2023-08-06T05:35:20;24.40;55.50
1936;DHT22;969;49.892;10.896;2023-08-06T05:37:46;24.40;55.50
1936;DHT22;969;49.892;10.896;2023-08-06T05:40:12;24.40;55.50
1936;DHT22;969;49.892;10.896;2023-08-06T05:42:37;24.40;55.50
1936;DHT22;969;49.892;10.896;2023-08-06T05:45:03;24.40;55.50
1936;DHT22;969;49.892;10.896;2023-08-06T05:47:29;24.40;55.50
1936;DHT22;969;49.892;10.896;2023-08-06T05:49:54;24.40;55.50
1936;DHT22;969;49.892;10.896;2023-08-06T05:52:20;24.40;55.50
1936;DHT22;969;49.892;10.896;2023-08-06T05:54:45;24.40;55.50
1936;DHT22;969;49.892;10.896;2023-08-06T05:57:11;24.40;55.50
1936;DHT22;969;49.892;10.896;2023-08-06T05:59:37;24.40;55.50
1936;DHT22;969;49.892;10.896;2023-08-06T06:02:02;24.40;55.50
1936;DHT22;969;49.892;10.896;2023-08-06T06:04:28;24.40;55.50
1936;DHT22;969;49.892;10.896;2023-08-06T06:06:54;24.40;55.50
1936;DHT22;969;49.892;10.896;2023-08-06T06:09:19;24.40;55.50
1936;DHT22;969;49.892;10.896;2023-08-06T06:11:45;24.40;55.60
1936;DHT22;969;49.892;10.896;2023-08-06T06:14:10;24.40;55.50
1936;DHT22;969;49.892;10.896;2023-08-06T06:16:36;24.40;55.50
1936;DHT22;969;49.892;10.896;2023-08-06T06:19:01;24.40;55.50
1936;DHT22;969;49.892;10.896;2023-08-06T06:21:27;24.40;55.50
1936;DHT22;969;49.892;10.896;2023-08-06T06:23:52;24.40;55.50
1936;DHT22;969;49.892;10.896;2023-08-06T06:26:18;24.40;55.50
1936;DHT22;969;49.892;10.896;2023-08-06T06:28:44;24.40;55.60
1936;DHT22;969;49.892;10.896;2023-08-06T06:31:09;24.40;55.60
1936;DHT22;969;49.892;10.896;2023-08-06T06:33:35;24.40;55.60
1936;DHT22;969;49.892;10.896;2023-08-06T06:36:01;24.40;55.60
1936;DHT22;969;49.892;10.896;2023-08-06T06:38:29;24.40;55.60
1936;DHT22;969;49.892;10.896;2023-08-06T06:40:55;24.40;55.60
1936;DHT22;969;49.892;10.896;2023-08-06T06:43:21;24.40;55.50
1936;DHT22;969;49.892;10.896;2023-08-06T06:45:47;24.40;55.50
1936;DHT22;969;49.892;10.896;2023-08-06T06:48:12;24.40;55.50
1936;DHT22;969;49.892;10.896;2023-08-06T06:50:38;24.40;55.50
1936;DHT22;969;49.892;10.896;2023-08-06T06:53:04;24.40;55.50
1936;DHT22;969;49.892;10.896;2023-08-06T06:55:30;24.50;55.60
1936;DHT22;969;49.892;10.896;2023-08-06T06:57:56;24.50;55.60
1936;DHT22;969;49.892;10.896;2023-08-06T07:00:21;24.40;55.50
1936;DHT22;969;49.892;10.896;2023-08-06T07:02:47;24.40;55.60
1936;DHT22;969;49.892;10.896;2023-08-06T07:05:12;24.40;55.50
1936;DHT22;969;49.892;10.896;2023-08-06T07:07:38;24.50;55.60
1936;DHT22;969;49.892;10.896;2023-08-06T07:10:04;24.50;55.60
1936;DHT22;969;49.892;10.896;2023-08-06T07:12:31;24.50;55.60
1936;DHT22;969;49.892;10.896;2023-08-06T07:14:56;24.40;55.50
1936;DHT22;969;49.892;10.896;2023-08-06T07:17:22;24.50;55.60
1936;DHT22;969;49.892;10.896;2023-08-06T07:19:47;24.50;56.10
1936;DHT22;969;49.892;10.896;2023-08-06T07:22:13;24.50;55.70
1936;DHT22;969;49.892;10.896;2023-08-06T07:24:38;24.50;55.60
1936;DHT22;969;49.892;10.896;2023-08-06T07:27:04;24.50;55.70
1936;DHT22;969;49.892;10.896;2023-08-06T07:29:30;24.50;55.70
1936;DHT22;969;49.892;10.896;2023-08-06T07:31:55;24.40;56.20
1936;DHT22;969;49.892;10.896;2023-08-06T07:34:21;24.50;55.80
1936;DHT22;969;49.892;10.896;2023-08-06T07:36:47;24.50;55.70
1936;DHT22;969;49.892;10.896;2023-08-06T07:39:12;24.40;55.60
1936;DHT22;969;49.892;10.896;2023-08-06T07:41:38;24.40;55.60
1936;DHT22;969;49.892;10.896;2023-08-06T07:44:04;24.50;55.70
1936;DHT22;969;49.892;10.896;2023-08-06T07:46:30;24.50;55.70
1936;DHT22;969;49.892;10.896;2023-08-06T07:48:55;24.40;55.70
1936;DHT22;969;49.892;10.896;2023-08-06T07:51:21;24.40;55.80
1936;DHT22;969;49.892;10.896;2023-08-06T07:53:46;24.50;55.70
1936;DHT22;969;49.892;10.896;2023-08-06T07:56:12;24.40;55.80
1936;DHT22;969;49.892;10.896;2023-08-06T07:58:38;24.40;55.80
1936;DHT22;969;49.892;10.896;2023-08-06T08:01:03;24.40;55.80
1936;DHT22;969;49.892;10.896;2023-08-06T08:03:29;24.40;55.80
1936;DHT22;969;49.892;10.896;2023-08-06T08:05:55;24.50;55.90
1936;DHT22;969;49.892;10.896;2023-08-06T08:08:24;24.40;55.80
1936;DHT22;969;49.892;10.896;2023-08-06T08:10:50;24.40;55.80
1936;DHT22;969;49.892;10.896;2023-08-06T08:13:15;24.40;55.80
1936;DHT22;969;49.892;10.896;2023-08-06T08:15:41;24.50;55.80
1936;DHT22;969;49.892;10.896;2023-08-06T08:18:07;24.40;55.80
1936;DHT22;969;49.892;10.896;2023-08-06T08:20:33;24.50;55.80
1936;DHT22;969;49.892;10.896;2023-08-06T08:23:00;24.50;55.70
1936;DHT22;969;49.892;10.896;2023-08-06T08:25:26;24.50;55.70
1936;DHT22;969;49.892;10.896;2023-08-06T08:27:53;24.50;55.80
1936;DHT22;969;49.892;10.896;2023-08-06T08:30:19;24.50;55.80
1936;DHT22;969;49.892;10.896;2023-08-06T08:32:45;24.50;55.80
1936;DHT22;969;49.892;10.896;2023-08-06T08:35:11;24.50;55.80
1936;DHT22;969;49.892;10.896;2023-08-06T08:37:38;24.50;55.80
1936;DHT22;969;49.892;10.896;2023-08-06T08:40:06;24.50;55.70
1936;DHT22;969;49.892;10.896;2023-08-06T08:42:31;24.50;56.30
1936;DHT22;969;49.892;10.896;2023-08-06T08:44:57;24.50;55.70
1936;DHT22;969;49.892;10.896;2023-08-06T08:47:24;24.50;55.70
1936;DHT22;969;49.892;10.896;2023-08-06T08:49:53;24.50;55.70
1936;DHT22;969;49.892;10.896;2023-08-06T08:52:20;24.50;55.70
1936;DHT22;969;49.892;10.896;2023-08-06T08:54:47;24.50;55.70
1936;DHT22;969;49.892;10.896;2023-08-06T08:57:17;24.50;55.70
1936;DHT22;969;49.892;10.896;2023-08-06T08:59:43;24.50;55.70
1936;DHT22;969;49.892;10.896;2023-08-06T09:02:10;24.50;55.70
1936;DHT22;969;49.892;10.896;2023-08-06T09:04:37;24.50;55.70
1936;DHT22;969;49.892;10.896;2023-08-06T09:07:04;24.50;55.70
1936;DHT22;969;49.892;10.896;2023-08-06T09:09:34;24.50;55.70
1936;DHT22;969;49.892;10.896;2023-08-06T09:12:10;24.50;55.70
1936;DHT22;969;49.892;10.896;2023-08-06T09:14:37;24.50;55.70
1936;DHT22;969;49.892;10.896;2023-08-06T09:17:04;24.50;55.70
1936;DHT22;969;49.892;10.896;2023-08-06T09:19:30;24.50;55.70
1936;DHT22;969;49.892;10.896;2023-08-06T09:21:56;24.50;55.70
1936;DHT22;969;49.892;10.896;2023-08-06T09:24:22;24.50;55.70
1936;DHT22;969;49.892;10.896;2023-08-06T09:26:48;24.50;55.70
1936;DHT22;969;49.892;10.896;2023-08-06T09:29:13;24.50;55.70
1936;DHT22;969;49.892;10.896;2023-08-06T09:31:48;24.50;55.70
1936;DHT22;969;49.892;10.896;2023-08-06T09:34:19;24.50;55.80
1936;DHT22;969;49.892;10.896;2023-08-06T09:36:50;24.50;55.70
1936;DHT22;969;49.892;10.896;2023-08-06T09:39:20;24.50;55.70
1936;DHT22;969;49.892;10.896;2023-08-06T09:41:47;24.50;55.70
1936;DHT22;969;49.892;10.896;2023-08-06T09:44:15;24.50;55.70
1936;DHT22;969;49.892;10.896;2023-08-06T09:46:42;24.50;55.70
1936;DHT22;969;49.892;10.896;2023-08-06T09:49:08;24.50;55.70
1936;DHT22;969;49.892;10.896;2023-08-06T09:51:35;24.50;55.70
1936;DHT22;969;49.892;10.896;2023-08-06T09:54:03;24.50;55.70
1936;DHT22;969;49.892;10.896;2023-08-06T09:56:30;24.50;55.70
1936;DHT22;969;49.892;10.896;2023-08-06T09:58:58;24.50;55.70
1936;DHT22;969;49.892;10.896;2023-08-06T10:01:25;24.50;55.70
1936;DHT22;969;49.892;10.896;2023-08-06T10:03:52;24.50;55.70
1936;DHT22;969;49.892;10.896;2023-08-06T10:06:20;24.50;55.70
1936;DHT22;969;49.892;10.896;2023-08-06T10:08:45;24.50;55.70
1936;DHT22;969;49.892;10.896;2023-08-06T10:11:12;24.50;55.80
1936;DHT22;969;49.892;10.896;2023-08-06T10:13:38;24.50;55.70
1936;DHT22;969;49.892;10.896;2023-08-06T10:16:05;24.50;55.70
1936;DHT22;969;49.892;10.896;2023-08-06T10:18:31;24.60;55.70
1936;DHT22;969;49.892;10.896;2023-08-06T10:20:59;24.60;55.70
1936;DHT22;969;49.892;10.896;2023-08-06T10:23:35;24.60;55.70
1936;DHT22;969;49.892;10.896;2023-08-06T10:26:03;24.60;55.80
1936;DHT22;969;49.892;10.896;2023-08-06T10:28:38;24.60;55.70
1936;DHT22;969;49.892;10.896;2023-08-06T10:31:05;24.60;55.70
1936;DHT22;969;49.892;10.896;2023-08-06T10:33:56;24.50;55.60
1936;DHT22;969;49.892;10.896;2023-08-06T10:36:22;24.60;55.80
1936;DHT22;969;49.892;10.896;2023-08-06T10:38:49;24.50;55.70
1936;DHT22;969;49.892;10.896;2023-08-06T10:41:28;24.50;55.70
1936;DHT22;969;49.892;10.896;2023-08-06T10:44:14;24.60;55.70
1936;DHT22;969;49.892;10.896;2023-08-06T10:46:40;24.60;55.70
1936;DHT22;969;49.892;10.896;2023-08-06T10:49:05;24.50;55.60
1936;DHT22;969;49.892;10.896;2023-08-06T10:51:32;24.60;55.60
1936;DHT22;969;49.892;10.896;2023-08-06T10:53:58;24.50;55.50
1936;DHT22;969;49.892;10.896;2023-08-06T10:56:25;24.60;55.50
1936;DHT22;969;49.892;10.896;2023-08-06T10:58:53;24.60;55.60
1936;DHT22;969;49.892;10.896;2023-08-06T11:01:19;24.60;55.60
1936;DHT22;969;49.892;10.896;2023-08-06T11:03:47;24.60;55.60
1936;DHT22;969;49.892;10.896;2023-08-06T11:06:18;24.60;55.60
1936;DHT22;969;49.892;10.896;2023-08-06T11:08:52;24.60;55.50
1936;DHT22;969;49.892;10.896;2023-08-06T11:11:18;24.60;55.50
1936;DHT22;969;49.892;10.896;2023-08-06T11:13:45;24.60;55.50
1936;DHT22;969;49.892;10.896;2023-08-06T11:16:17;24.60;55.40
1936;DHT22;969;49.892;10.896;2023-08-06T11:18:42;24.60;55.30
1936;DHT22;969;49.892;10.896;2023-08-06T11:21:08;24.60;55.30
1936;DHT22;969;49.892;10.896;2023-08-06T11:23:35;24.60;55.20
1936;DHT22;969;49.892;10.896;2023-08-06T11:26:01;24.60;55.10
1936;DHT22;969;49.892;10.896;2023-08-06T11:28:27;24.60;55.10
1936;DHT22;969;49.892;10.896;2023-08-06T11:30:53;24.60;55.00
1936;DHT22;969;49.892;10.896;2023-08-06T11:33:29;24.60;54.90
1936;DHT22;969;49.892;10.896;2023-08-06T11:35:56;24.50;54.80
1936;DHT22;969;49.892;10.896;2023-08-06T11:38:28;24.60;54.80
1936;DHT22;969;49.892;10.896;2023-08-06T11:40:54;24.50;54.70
1936;DHT22;969;49.892;10.896;2023-08-06T11:43:20;24.50;54.70
1936;DHT22;969;49.892;10.896;2023-08-06T11:45:48;24.50;54.60
1936;DHT22;969;49.892;10.896;2023-08-06T11:48:14;24.50;54.70
1936;DHT22;969;49.892;10.896;2023-08-06T11:50:39;24.50;54.70
1936;DHT22;969;49.892;10.896;2023-08-06T11:53:05;24.50;54.70
1936;DHT22;969;49.892;10.896;2023-08-06T11:55:31;24.50;54.70
1936;DHT22;969;49.892;10.896;2023-08-06T11:57:57;24.50;54.70
1936;DHT22;969;49.892;10.896;2023-08-06T12:00:26;24.50;54.70
1936;DHT22;969;49.892;10.896;2023-08-06T12:02:52;24.50;54.70
1936;DHT22;969;49.892;10.896;2023-08-06T12:05:20;24.50;54.80
1936;DHT22;969;49.892;10.896;2023-08-06T12:07:48;24.50;54.70
1936;DHT22;969;49.892;10.896;2023-08-06T12:10:15;24.50;54.80
1936;DHT22;969;49.892;10.896;2023-08-06T12:12:41;24.50;54.80
1936;DHT22;969;49.892;10.896;2023-08-06T12:15:08;24.50;54.80
1936;DHT22;969;49.892;10.896;2023-08-06T12:17:34;24.50;54.80
1936;DHT22;969;49.892;10.896;2023-08-06T12:20:00;24.50;54.70
1936;DHT22;969;49.892;10.896;2023-08-06T12:22:26;24.50;54.70
1936;DHT22;969;49.892;10.896;2023-08-06T12:24:51;24.50;54.70
1936;DHT22;969;49.892;10.896;2023-08-06T12:27:17;24.50;54.70
1936;DHT22;969;49.892;10.896;2023-08-06T12:29:44;24.50;54.70
1936;DHT22;969;49.892;10.896;2023-08-06T12:32:11;24.50;54.70
1936;DHT22;969;49.892;10.896;2023-08-06T12:34:41;24.50;54.80
1936;DHT22;969;49.892;10.896;2023-08-06T12:37:07;24.50;54.70
1936;DHT22;969;49.892;10.896;2023-08-06T12:39:34;24.40;54.60
1936;DHT22;969;49.892;10.896;2023-08-06T12:42:01;24.50;54.70
1936;DHT22;969;49.892;10.896;2023-08-06T12:44:27;24.50;54.80
1936;DHT22;969;49.892;10.896;2023-08-06T12:46:53;24.50;54.80
1936;DHT22;969;49.892;10.896;2023-08-06T12:49:20;24.50;54.80
1936;DHT22;969;49.892;10.896;2023-08-06T12:51:49;24.50;54.70
1936;DHT22;969;49.892;10.896;2023-08-06T12:54:17;24.50;54.70
1936;DHT22;969;49.892;10.896;2023-08-06T12:56:44;24.50;54.70
1936;DHT22;969;49.892;10.896;2023-08-06T12:59:10;24.50;54.70
1936;DHT22;969;49.892;10.896;2023-08-06T13:01:37;24.50;54.60
1936;DHT22;969;49.892;10.896;2023-08-06T13:04:03;24.50;54.50
1936;DHT22;969;49.892;10.896;2023-08-06T13:06:29;24.50;54.50
1936;DHT22;969;49.892;10.896;2023-08-06T13:08:56;24.50;54.50
1936;DHT22;969;49.892;10.896;2023-08-06T13:11:22;24.50;54.60
1936;DHT22;969;49.892;10.896;2023-08-06T13:13:48;24.50;54.40
1936;DHT22;969;49.892;10.896;2023-08-06T13:16:14;24.50;54.40
1936;DHT22;969;49.892;10.896;2023-08-06T13:18:39;24.50;54.30
1936;DHT22;969;49.892;10.896;2023-08-06T13:21:05;24.50;54.30
1936;DHT22;969;49.892;10.896;2023-08-06T13:23:30;24.50;54.20
1936;DHT22;969;49.892;10.896;2023-08-06T13:25:56;24.50;54.20
1936;DHT22;969;49.892;10.896;2023-08-06T13:28:21;24.50;54.20
1936;DHT22;969;49.892;10.896;2023-08-06T13:30:47;24.50;54.30
1936;DHT22;969;49.892;10.896;2023-08-06T13:33:13;24.50;54.40
1936;DHT22;969;49.892;10.896;2023-08-06T13:35:38;24.50;54.30
1936;DHT22;969;49.892;10.896;2023-08-06T13:38:04;24.50;54.30
1936;DHT22;969;49.892;10.896;2023-08-06T13:40:32;24.50;54.30
1936;DHT22;969;49.892;10.896;2023-08-06T13:42:58;24.50;54.30
1936;DHT22;969;49.892;10.896;2023-08-06T13:45:25;24.50;54.30
1936;DHT22;969;49.892;10.896;2023-08-06T13:47:50;24.50;54.30
1936;DHT22;969;49.892;10.896;2023-08-06T13:50:16;24.50;54.20
1936;DHT22;969;49.892;10.896;2023-08-06T13:52:42;24.50;54.30
1936;DHT22;969;49.892;10.896;2023-08-06T13:55:08;24.50;54.30
1936;DHT22;969;49.892;10.896;2023-08-06T13:57:34;24.50;54.40
1936;DHT22;969;49.892;10.896;2023-08-06T14:00:00;24.50;54.40
1936;DHT22;969;49.892;10.896;2023-08-06T14:02:26;24.50;54.50
1936;DHT22;969;49.892;10.896;2023-08-06T14:04:54;24.50;54.60
1936;DHT22;969;49.892;10.896;2023-08-06T14:07:20;24.50;54.50
1936;DHT22;969;49.892;10.896;2023-08-06T14:09:46;24.50;54.50
1936;DHT22;969;49.892;10.896;2023-08-06T14:12:13;24.50;54.60
1936;DHT22;969;49.892;10.896;2023-08-06T14:14:39;24.50;54.60
1936;DHT22;969;49.892;10.896;2023-08-06T14:17:05;24.50;54.60
1936;DHT22;969;49.892;10.896;2023-08-06T14:19:30;24.50;54.60
1936;DHT22;969;49.892;10.896;2023-08-06T14:21:56;24.50;54.60
1936;DHT22;969;49.892;10.896;2023-08-06T14:24:22;24.50;54.60
1936;DHT22;969;49.892;10.896;2023-08-06T14:26:47;24.50;54.50
1936;DHT22;969;49.892;10.896;2023-08-06T14:29:13;24.50;54.50
1936;DHT22;969;49.892;10.896;2023-08-06T14:31:39;24.50;54.50
1936;DHT22;969;49.892;10.896;2023-08-06T14:34:05;24.50;54.50
1936;DHT22;969;49.892;10.896;2023-08-06T14:36:31;24.50;54.50
1936;DHT22;969;49.892;10.896;2023-08-06T14:38:57;24.50;54.50
1936;DHT22;969;49.892;10.896;2023-08-06T14:41:23;24.50;54.50
1936;DHT22;969;49.892;10.896;2023-08-06T14:43:49;24.50;54.60
1936;DHT22;969;49.892;10.896;2023-08-06T14:46:15;24.50;54.60
1936;DHT22;969;49.892;10.896;2023-08-06T14:48:40;24.50;54.70
1936;DHT22;969;49.892;10.896;2023-08-06T14:51:08;24.50;54.70
1936;DHT22;969;49.892;10.896;2023-08-06T14:53:33;24.40;54.70
1936;DHT22;969;49.892;10.896;2023-08-06T14:55:59;24.50;54.80
1936;DHT22;969;49.892;10.896;2023-08-06T14:58:24;24.40;54.80
1936;DHT22;969;49.892;10.896;2023-08-06T15:00:50;24.40;54.80
1936;DHT22;969;49.892;10.896;2023-08-06T15:03:16;24.40;54.80
1936;DHT22;969;49.892;10.896;2023-08-06T15:05:47;24.40;54.80
1936;DHT22;969;49.892;10.896;2023-08-06T15:08:13;24.40;54.80
1936;DHT22;969;49.892;10.896;2023-08-06T15:10:39;24.40;54.80
1936;DHT22;969;49.892;10.896;2023-08-06T15:13:04;24.40;54.80
1936;DHT22;969;49.892;10.896;2023-08-06T15:15:30;24.40;54.80
1936;DHT22;969;49.892;10.896;2023-08-06T15:17:56;24.40;54.80
1936;DHT22;969;49.892;10.896;2023-08-06T15:20:23;24.40;54.80
1936;DHT22;969;49.892;10.896;2023-08-06T15:22:48;24.40;54.80
1936;DHT22;969;49.892;10.896;2023-08-06T15:25:14;24.40;54.80
1936;DHT22;969;49.892;10.896;2023-08-06T15:27:39;24.40;54.80
1936;DHT22;969;49.892;10.896;2023-08-06T15:30:06;24.50;54.90
1936;DHT22;969;49.892;10.896;2023-08-06T15:32:31;24.40;54.80
1936;DHT22;969;49.892;10.896;2023-08-06T15:34:57;24.40;54.80
1936;DHT22;969;49.892;10.896;2023-08-06T15:37:23;24.40;54.80
1936;DHT22;969;49.892;10.896;2023-08-06T15:39:48;24.40;54.80
1936;DHT22;969;49.892;10.896;2023-08-06T15:42:14;24.40;54.90
1936;DHT22;969;49.892;10.896;2023-08-06T15:44:41;24.40;54.80
1936;DHT22;969;49.892;10.896;2023-08-06T15:47:06;24.40;54.90
1936;DHT22;969;49.892;10.896;2023-08-06T15:49:32;24.40;54.90
1936;DHT22;969;49.892;10.896;2023-08-06T15:51:58;24.40;54.90
1936;DHT22;969;49.892;10.896;2023-08-06T15:54:23;24.40;54.90
1936;DHT22;969;49.892;10.896;2023-08-06T15:56:49;24.40;55.00
1936;DHT22;969;49.892;10.896;2023-08-06T15:59:25;24.40;55.00
1936;DHT22;969;49.892;10.896;2023-08-06T16:01:51;24.40;55.00